< < Back
Terminal Aerodrome Forecast


Current Version              Previous Versions:   1  2  3  4  5  6  7  8  9  

Terminal Aerodrome Forecast

313
FTUS42 KCAE 202000 AAA
TAFAGS
TAF AMD
KAGS 202044Z 2021/2118 32007KT P6SM VCTS SCT060CB
      TEMPO 2021/2022 5SM -TSRA BKN050CB
     FM202300 30007KT P6SM SCT060
     FM210000 VRB03KT P6SM SCT250
     FM211000 00000KT 2SM BR SCT250
     FM211300 VRB04KT P6SM SCT250=

Latest METAR

106
SAUS70 KWBC 210200 RRA
MTRAGS
METAR KAGS 210153Z 00000KT 10SM CLR 24/21 A3004 RMK AO2 SLP171
T02440206


USA.gov is the U.S. government's official web portal to all federal, state and local government web resources and services.